Time;durP1;ratioP1;P1;durP2;ratioP2;P2;SDS_P1;SDS_P2;PMS_P1;PMS_P2;Temp;Humidity;BMP_temperature;BMP_pressure;BME280_temperature;BME280_humidity;BME280_pressure;Samples;Min_cycle;Max_cycle;Signal;HPM_P1;HPM_P2
2023/09/21 00:00:59;;;;;;;;;;;;;;;;;;5091935;28;20279;-80
2023/09/21 00:03:26;;;;;;;;;;;;;;;;;;5090618;28;19943;-79
2023/09/21 00:05:52;;;;;;;;;;;;;;;;;;5092299;28;20373;-79
2023/09/21 00:08:17;;;;;;;;;;;;;;;;;;5078457;28;19911;-79
2023/09/21 00:10:43;;;;;;;;;;;;;;;;;;5092112;28;20006;-79
2023/09/21 00:13:09;;;;;;;;;;;;;;;;;;5090564;28;19918;-79
2023/09/21 00:15:34;;;;;;;;;;;;;;;;;;5073934;28;19908;-78
2023/09/21 00:18:00;;;;;;;;;;;;;;;;;;5091579;28;19912;-79
2023/09/21 00:20:28;;;;;;;;;;;;;;;;;;5088576;28;19919;-80
2023/09/21 00:22:53;;;;;;;;;;;;;;;;;;5096280;28;20340;-80
2023/09/21 00:25:19;;;;;;;;;;;;;;;;;;5073815;28;19912;-80
2023/09/21 00:27:44;;;;;;;;;;;;;;;;;;5098054;28;19920;-80
2023/09/21 00:30:09;;;;;;;;;;;;;;;;;;5095880;28;19908;-79
2023/09/21 00:32:37;;;;;;;;;;;;;;;;;;5094664;28;19992;-79
2023/09/21 00:35:06;;;;;;;;;;;;;;;;;;5110170;28;20297;-79
2023/09/21 00:37:32;;;;;;;;;;;;;;;;;;5076153;28;19912;-79
2023/09/21 00:39:57;;;;;;;;;;;;;;;;;;5094584;28;20340;-79
2023/09/21 00:42:23;;;;;;;;;;;;;;;;;;5095537;28;20392;-80
2023/09/21 00:44:51;;;;;;;;;;;;;;;;;;5077221;28;20419;-80
2023/09/21 00:47:17;;;;;;;;;;;;;;;;;;5110151;28;19951;-80
2023/09/21 00:49:44;;;;;;;;;;;;;;;;;;5095749;28;19940;-78
2023/09/21 00:52:12;;;;;;;;;;;;;;;;;;5094212;28;19916;-79
2023/09/21 00:54:37;;;;;;;;;;;;;;;;;;5095765;28;19908;-78
2023/09/21 00:57:02;;;;;;;;;;;;;;;;;;5095618;28;19911;-79
2023/09/21 00:59:29;;;;;;;;;;;;;;;;;;5095355;28;20018;-79
2023/09/21 01:01:54;;;;;;;;;;;;;;;;;;5094668;28;19912;-79
2023/09/21 01:04:21;;;;;;;;;;;;;;;;;;5095622;28;20350;-79
2023/09/21 01:06:48;;;;;;;;;;;;;;;;;;5094320;28;20371;-79
2023/09/21 01:09:17;;;;;;;;;;;;;;;;;;5087927;28;19908;-79
2023/09/21 01:11:42;;;;;;;;;;;;;;;;;;5095405;28;19915;-79
2023/09/21 01:14:08;;;;;;;;;;;;;;;;;;5095149;28;19914;-79
2023/09/21 01:16:33;;;;;;;;;;;;;;;;;;5095198;28;19916;-79
2023/09/21 01:18:59;;;;;;;;;;;;;;;;;;5093687;28;19908;-79
2023/09/21 01:21:25;;;;;;;;;;;;;;;;;;5121537;27;20217;-79
2023/09/21 01:23:52;;;;;;;;;;;;;;;;;;5094509;28;19934;-79
2023/09/21 01:26:17;;;;;;;;;;;;;;;;;;5094694;28;19997;-79
2023/09/21 01:28:45;;;;;;;;;;;;;;;;;;5102957;28;19936;-79
2023/09/21 01:31:13;;;;;;;;;;;;;;;;;;5095656;28;19912;-79
2023/09/21 01:33:38;;;;;;;;;;;;;;;;;;5110196;28;20404;-79
2023/09/21 01:36:08;;;;;;;;;;;;;;;;;;5095894;28;19997;-79
2023/09/21 01:38:34;;;;;;;;;;;;;;;;;;5115433;27;20332;-79
2023/09/21 01:41:00;;;;;;;;;;;;;;;;;;5105577;28;19916;-79
2023/09/21 01:43:25;;;;;;;;;;;;;;;;;;5090805;28;19912;-79
2023/09/21 01:45:50;;;;;;;;;;;;;;;;;;5106628;28;19912;-79
2023/09/21 01:48:18;;;;;;;;;;;;;;;;;;5094232;28;19908;-79
2023/09/21 01:50:46;;;;;;;;;;;;;;;;;;5089201;28;20352;-79
2023/09/21 01:53:11;;;;;;;;;;;;;;;;;;5090486;28;20002;-79
2023/09/21 01:55:36;;;;;;;;;;;;;;;;;;5094745;28;20081;-79
2023/09/21 01:58:03;;;;;;;;;;;;;;;;;;5076539;28;19908;-79
2023/09/21 02:00:29;;;;;;;;;;;;;;;;;;5093339;28;19965;-79
2023/09/21 02:02:54;;;;;;;;;;;;;;;;;;5093410;28;19908;-79
2023/09/21 02:05:20;;;;;;;;;;;;;;;;;;5091528;28;19923;-79
2023/09/21 02:07:45;;;;;;;;;;;;;;;;;;5067824;28;19914;-79
2023/09/21 02:10:11;;;;;;;;;;;;;;;;;;5105223;28;19914;-79
2023/09/21 02:12:39;;;;;;;;;;;;;;;;;;5093833;28;19915;-80
2023/09/21 02:15:06;;;;;;;;;;;;;;;;;;5093850;28;20014;-80
2023/09/21 02:17:31;;;;;;;;;;;;;;;;;;5107236;27;19911;-79
2023/09/21 02:19:57;;;;;;;;;;;;;;;;;;5092400;28;19968;-79
2023/09/21 02:22:22;;;;;;;;;;;;;;;;;;5087880;28;19908;-80
2023/09/21 02:24:48;;;;;;;;;;;;;;;;;;5087925;28;19912;-79
2023/09/21 02:27:13;;;;;;;;;;;;;;;;;;5107961;28;20054;-80
2023/09/21 02:29:40;;;;;;;;;;;;;;;;;;5094050;28;19939;-79
2023/09/21 02:32:06;;;;;;;;;;;;;;;;;;5092627;28;19908;-79
2023/09/21 02:34:31;;;;;;;;;;;;;;;;;;5093886;28;20272;-80
2023/09/21 02:36:56;;;;;;;;;;;;;;;;;;5091973;28;19930;-79
2023/09/21 02:39:22;;;;;;;;;;;;;;;;;;5109821;28;19966;-79
2023/09/21 02:41:47;;;;;;;;;;;;;;;;;;5093605;28;19908;-79
2023/09/21 02:44:13;;;;;;;;;;;;;;;;;;5108816;28;19963;-79
2023/09/21 02:46:39;;;;;;;;;;;;;;;;;;5075417;28;19954;-79
2023/09/21 02:49:06;;;;;;;;;;;;;;;;;;5091559;28;20038;-79
2023/09/21 02:51:32;;;;;;;;;;;;;;;;;;5073966;28;20332;-79
2023/09/21 02:53:59;;;;;;;;;;;;;;;;;;5092481;28;19912;-79
2023/09/21 02:56:25;;;;;;;;;;;;;;;;;;5091899;28;20357;-79
2023/09/21 02:58:52;;;;;;;;;;;;;;;;;;5108703;28;19941;-79
2023/09/21 03:01:21;;;;;;;;;;;;;;;;;;5074874;28;19916;-79
2023/09/21 03:03:46;;;;;;;;;;;;;;;;;;5092116;28;20263;-79
2023/09/21 03:06:16;;;;;;;;;;;;;;;;;;5091237;28;19919;-79
2023/09/21 03:08:41;;;;;;;;;;;;;;;;;;5074904;28;19911;-79
2023/09/21 03:11:10;;;;;;;;;;;;;;;;;;5074683;28;20385;-79
2023/09/21 03:13:36;;;;;;;;;;;;;;;;;;5091767;28;20386;-79
2023/09/21 03:16:05;;;;;;;;;;;;;;;;;;5091996;28;19908;-79
2023/09/21 03:18:31;;;;;;;;;;;;;;;;;;5085335;28;19912;-79
2023/09/21 03:20:56;;;;;;;;;;;;;;;;;;5093454;27;19912;-79
2023/09/21 03:23:23;;;;;;;;;;;;;;;;;;5084550;28;20006;-79
2023/09/21 03:25:49;;;;;;;;;;;;;;;;;;5091172;28;20055;-79
2023/09/21 03:28:15;;;;;;;;;;;;;;;;;;5084475;28;19927;-79
2023/09/21 03:30:40;;;;;;;;;;;;;;;;;;5096574;28;20348;-79
2023/09/21 03:33:06;;;;;;;;;;;;;;;;;;5098840;28;19943;-79
2023/09/21 03:35:31;;;;;;;;;;;;;;;;;;5090982;28;20014;-79
2023/09/21 03:37:57;;;;;;;;;;;;;;;;;;5097976;28;19974;-79
2023/09/21 03:40:23;;;;;;;;;;;;;;;;;;5090332;28;19918;-79
2023/09/21 03:42:49;;;;;;;;;;;;;;;;;;5090853;28;20526;-79
2023/09/21 03:45:16;;;;;;;;;;;;;;;;;;5092653;28;19912;-78
2023/09/21 03:47:42;;;;;;;;;;;;;;;;;;5092271;28;19912;-79
2023/09/21 03:50:11;;;;;;;;;;;;;;;;;;5087160;28;19915;-79
2023/09/21 03:52:37;;;;;;;;;;;;;;;;;;5074649;28;20397;-79
2023/09/21 03:55:02;;;;;;;;;;;;;;;;;;5090483;28;19908;-79
2023/09/21 03:57:28;;;;;;;;;;;;;;;;;;5092381;28;19912;-79
2023/09/21 03:59:55;;;;;;;;;;;;;;;;;;5073404;28;19912;-79
2023/09/21 04:02:22;;;;;;;;;;;;;;;;;;5070247;28;19911;-79
2023/09/21 04:04:47;;;;;;;;;;;;;;;;;;5086374;28;19908;-79
2023/09/21 04:07:12;;;;;;;;;;;;;;;;;;5090941;28;19922;-79
2023/09/21 04:09:38;;;;;;;;;;;;;;;;;;5095970;27;19995;-79
2023/09/21 04:12:03;;;;;;;;;;;;;;;;;;5089656;28;19912;-79
2023/09/21 04:14:29;;;;;;;;;;;;;;;;;;5094830;28;19912;-80
2023/09/21 04:16:56;;;;;;;;;;;;;;;;;;5096294;28;20002;-78
2023/09/21 04:19:22;;;;;;;;;;;;;;;;;;5090420;28;20385;-78
2023/09/21 04:21:48;;;;;;;;;;;;;;;;;;5073937;28;20002;-78
2023/09/21 04:24:13;;;;;;;;;;;;;;;;;;5101657;28;20375;-78
2023/09/21 04:26:39;;;;;;;;;;;;;;;;;;5090509;28;19916;-78
2023/09/21 04:29:06;;;;;;;;;;;;;;;;;;5074673;28;19908;-79
2023/09/21 04:31:32;;;;;;;;;;;;;;;;;;5073888;28;19989;-79
2023/09/21 04:33:57;;;;;;;;;;;;;;;;;;5107728;28;19939;-79
2023/09/21 04:36:24;;;;;;;;;;;;;;;;;;5090556;28;19951;-79
2023/09/21 04:38:50;;;;;;;;;;;;;;;;;;5103673;28;19913;-78
2023/09/21 04:41:16;;;;;;;;;;;;;;;;;;5091317;28;19915;-80
2023/09/21 04:43:41;;;;;;;;;;;;;;;;;;5107667;28;20412;-78
2023/09/21 04:46:07;;;;;;;;;;;;;;;;;;5099241;28;20276;-79
2023/09/21 04:48:33;;;;;;;;;;;;;;;;;;5087300;28;19908;-79
2023/09/21 04:50:59;;;;;;;;;;;;;;;;;;5090292;28;20375;-78
2023/09/21 04:53:24;;;;;;;;;;;;;;;;;;5090836;28;19915;-79
2023/09/21 04:55:49;;;;;;;;;;;;;;;;;;5087566;28;19948;-79
2023/09/21 04:58:16;;;;;;;;;;;;;;;;;;5092229;28;20482;-79
2023/09/21 05:00:42;;;;;;;;;;;;;;;;;;5071444;28;19916;-79
2023/09/21 05:03:09;;;;;;;;;;;;;;;;;;5091036;28;19912;-79
2023/09/21 05:05:35;;;;;;;;;;;;;;;;;;5091740;28;19916;-79
2023/09/21 05:08:03;;;;;;;;;;;;;;;;;;5107462;28;19968;-79
2023/09/21 05:10:29;;;;;;;;;;;;;;;;;;5090550;28;19912;-78
2023/09/21 05:12:54;;;;;;;;;;;;;;;;;;5093133;28;19930;-78
2023/09/21 05:15:19;;;;;;;;;;;;;;;;;;5096390;28;19912;-83
2023/09/21 05:17:45;;;;;;;;;;;;;;;;;;5096028;28;20621;-81
2023/09/21 05:20:10;;;;;;;;;;;;;;;;;;5095854;28;20011;-82
2023/09/21 05:22:39;;;;;;;;;;;;;;;;;;5110487;28;19908;-82
2023/09/21 05:25:05;;;;;;;;;;;;;;;;;;5111202;27;19912;-82
2023/09/21 05:27:30;;;;;;;;;;;;;;;;;;5080929;28;20386;-82
2023/09/21 05:29:57;;;;;;;;;;;;;;;;;;5093149;28;19918;-81
2023/09/21 05:32:22;;;;;;;;;;;;;;;;;;5080824;28;19915;-82
2023/09/21 05:34:48;;;;;;;;;;;;;;;;;;5105653;28;20557;-82
2023/09/21 05:37:14;;;;;;;;;;;;;;;;;;5092624;28;19931;-82
2023/09/21 05:39:40;;;;;;;;;;;;;;;;;;5091864;28;19920;-82
2023/09/21 05:42:05;;;;;;;;;;;;;;;;;;5093304;28;20411;-82
2023/09/21 05:44:30;;;;;;;;;;;;;;;;;;5093796;28;19961;-82
2023/09/21 05:46:56;;;;;;;;;;;;;;;;;;5092697;28;19947;-82
2023/09/21 05:49:24;;;;;;;;;;;;;;;;;;5093276;28;19916;-81
2023/09/21 05:51:52;;;;;;;;;;;;;;;;;;5093563;28;19912;-81
2023/09/21 05:54:19;;;;;;;;;;;;;;;;;;5093578;28;20409;-82
2023/09/21 05:56:44;;;;;;;;;;;;;;;;;;5093927;28;20006;-82
2023/09/21 05:59:10;;;;;;;;;;;;;;;;;;5093935;28;20373;-82
2023/09/21 06:01:35;;;;;;;;;;;;;;;;;;5093527;28;19969;-82
2023/09/21 06:04:02;;;;;;;;;;;;;;;;;;5093438;28;20014;-81
2023/09/21 06:06:31;;;;;;;;;;;;;;;;;;5093645;28;20303;-81
2023/09/21 06:08:56;;;;;;;;;;;;;;;;;;5092733;28;20389;-81
2023/09/21 06:11:22;;;;;;;;;;;;;;;;;;5108799;28;19908;-82
2023/09/21 06:13:48;;;;;;;;;;;;;;;;;;5108765;28;19985;-82
2023/09/21 06:16:13;;;;;;;;;;;;;;;;;;5093589;28;19948;-82
2023/09/21 06:18:39;;;;;;;;;;;;;;;;;;5092301;28;20322;-81
2023/09/21 06:21:06;;;;;;;;;;;;;;;;;;5091283;28;19916;-81
2023/09/21 06:23:31;;;;;;;;;;;;;;;;;;5092879;28;20367;-81
2023/09/21 06:25:57;;;;;;;;;;;;;;;;;;5074660;28;19908;-81
2023/09/21 06:28:22;;;;;;;;;;;;;;;;;;5090722;28;19920;-83
2023/09/21 06:30:47;;;;;;;;;;;;;;;;;;5074426;28;19908;-81
2023/09/21 06:33:13;;;;;;;;;;;;;;;;;;5092658;28;19912;-80
2023/09/21 06:35:38;;;;;;;;;;;;;;;;;;5091911;28;19908;-81
2023/09/21 06:38:04;;;;;;;;;;;;;;;;;;5092886;28;19994;-81
2023/09/21 06:40:30;;;;;;;;;;;;;;;;;;5080182;28;19981;-82
2023/09/21 06:42:55;;;;;;;;;;;;;;;;;;5092509;28;19912;-82
2023/09/21 06:45:21;;;;;;;;;;;;;;;;;;5092082;28;19907;-82
2023/09/21 06:47:49;;;;;;;;;;;;;;;;;;5075254;28;19912;-82
2023/09/21 06:50:14;;;;;;;;;;;;;;;;;;5091826;28;19956;-82
2023/09/21 06:52:40;;;;;;;;;;;;;;;;;;5092157;28;20010;-82
2023/09/21 06:55:05;;;;;;;;;;;;;;;;;;5074753;28;20500;-82
2023/09/21 06:57:31;;;;;;;;;;;;;;;;;;5092135;28;19912;-82
2023/09/21 06:59:56;;;;;;;;;;;;;;;;;;5082982;28;20045;-82
2023/09/21 07:02:24;;;;;;;;;;;;;;;;;;5104079;28;19919;-82
2023/09/21 07:04:49;;;;;;;;;;;;;;;;;;5093100;28;20404;-82
2023/09/21 07:07:15;;;;;;;;;;;;;;;;;;5095589;28;19916;-81
2023/09/21 07:09:41;;;;;;;;;;;;;;;;;;5093327;28;20294;-84
2023/09/21 07:12:06;;;;;;;;;;;;;;;;;;5093947;28;19911;-81
2023/09/21 07:14:32;;;;;;;;;;;;;;;;;;5086601;28;19912;-82
2023/09/21 07:16:59;;;;;;;;;;;;;;;;;;5087251;28;19965;-82
2023/09/21 07:19:24;;;;;;;;;;;;;;;;;;5092385;28;19908;-82
2023/09/21 07:21:49;;;;;;;;;;;;;;;;;;5092467;28;19916;-82
2023/09/21 07:24:15;;;;;;;;;;;;;;;;;;5092926;28;20329;-81
2023/09/21 07:26:42;;;;;;;;;;;;;;;;;;5091124;28;20394;-81
2023/09/21 07:29:08;;;;;;;;;;;;;;;;;;5091725;28;19908;-81
2023/09/21 07:31:33;;;;;;;;;;;;;;;;;;5107875;28;19919;-82
2023/09/21 07:33:59;;;;;;;;;;;;;;;;;;5091668;28;19919;-82
2023/09/21 07:36:26;;;;;;;;;;;;;;;;;;5091506;28;19971;-82
2023/09/21 07:38:53;;;;;;;;;;;;;;;;;;5091670;28;19955;-82
2023/09/21 07:41:19;;;;;;;;;;;;;;;;;;5092087;28;20311;-82
2023/09/21 07:43:44;;;;;;;;;;;;;;;;;;5091496;28;19953;-82
2023/09/21 07:46:09;;;;;;;;;;;;;;;;;;5091911;28;19987;-83
2023/09/21 07:48:35;;;;;;;;;;;;;;;;;;5073878;28;19915;-82
2023/09/21 07:51:00;;;;;;;;;;;;;;;;;;5090970;28;19912;-82
2023/09/21 07:53:27;;;;;;;;;;;;;;;;;;5091827;28;19915;-83
2023/09/21 07:55:52;;;;;;;;;;;;;;;;;;5091628;28;20001;-82
2023/09/21 07:58:17;;;;;;;;;;;;;;;;;;5073681;28;20745;-82
2023/09/21 08:00:43;;;;;;;;;;;;;;;;;;5090668;28;19947;-81
2023/09/21 08:03:08;;;;;;;;;;;;;;;;;;5091366;28;20010;-83
2023/09/21 08:05:34;;;;;;;;;;;;;;;;;;5094621;28;19917;-82
2023/09/21 08:07:59;;;;;;;;;;;;;;;;;;5084837;28;19919;-82
2023/09/21 08:10:24;;;;;;;;;;;;;;;;;;5091108;28;19919;-82
2023/09/21 08:12:50;;;;;;;;;;;;;;;;;;5089510;28;19912;-81
2023/09/21 08:15:17;;;;;;;;;;;;;;;;;;5091452;28;19912;-82
2023/09/21 08:17:43;;;;;;;;;;;;;;;;;;5090408;28;19916;-82
2023/09/21 08:20:09;;;;;;;;;;;;;;;;;;5091223;28;19941;-82
2023/09/21 08:22:34;;;;;;;;;;;;;;;;;;5091494;28;20270;-82
2023/09/21 08:25:00;;;;;;;;;;;;;;;;;;5086669;28;19950;-82
2023/09/21 08:27:28;;;;;;;;;;;;;;;;;;5090912;28;19969;-82
2023/09/21 08:29:55;;;;;;;;;;;;;;;;;;5090921;28;19961;-81
2023/09/21 08:32:20;;;;;;;;;;;;;;;;;;5091393;28;19919;-82
2023/09/21 08:34:46;;;;;;;;;;;;;;;;;;5091074;28;19916;-83
2023/09/21 08:37:11;;;;;;;;;;;;;;;;;;5090910;28;19958;-81
2023/09/21 08:39:36;;;;;;;;;;;;;;;;;;5091151;28;20383;-81
2023/09/21 08:42:03;;;;;;;;;;;;;;;;;;5091278;28;19908;-80
2023/09/21 08:44:29;;;;;;;;;;;;;;;;;;5089920;28;19955;-81
2023/09/21 08:46:54;;;;;;;;;;;;;;;;;;5091563;28;19955;-82
2023/09/21 08:49:21;;;;;;;;;;;;;;;;;;5092488;28;19916;-80
2023/09/21 08:51:47;;;;;;;;;;;;;;;;;;5094583;28;19947;-81
2023/09/21 08:54:14;;;;;;;;;;;;;;;;;;5094871;28;19954;-83
2023/09/21 08:56:39;;;;;;;;;;;;;;;;;;5094794;28;20373;-80
2023/09/21 08:59:06;;;;;;;;;;;;;;;;;;5095728;28;19939;-82
2023/09/21 09:01:31;;;;;;;;;;;;;;;;;;5092659;28;19912;-81
2023/09/21 09:03:56;;;;;;;;;;;;;;;;;;5094713;28;19912;-82
2023/09/21 09:06:22;;;;;;;;;;;;;;;;;;5093215;28;20333;-82
2023/09/21 09:08:48;;;;;;;;;;;;;;;;;;5094996;28;19912;-82
2023/09/21 09:11:13;;;;;;;;;;;;;;;;;;5094177;28;19908;-82
2023/09/21 09:13:40;;;;;;;;;;;;;;;;;;5093357;28;19916;-82
2023/09/21 09:16:06;;;;;;;;;;;;;;;;;;5093369;28;20286;-82
2023/09/21 09:18:31;;;;;;;;;;;;;;;;;;5090993;28;19912;-82
2023/09/21 09:20:56;;;;;;;;;;;;;;;;;;5086732;28;19919;-82
2023/09/21 09:23:22;;;;;;;;;;;;;;;;;;5095261;28;19912;-82
2023/09/21 09:25:49;;;;;;;;;;;;;;;;;;5077005;28;19911;-82
2023/09/21 09:28:15;;;;;;;;;;;;;;;;;;5093237;28;19963;-82
2023/09/21 09:30:41;;;;;;;;;;;;;;;;;;5093969;28;20001;-82
2023/09/21 09:33:12;;;;;;;;;;;;;;;;;;5085486;28;19915;-82
2023/09/21 09:35:38;;;;;;;;;;;;;;;;;;5093121;28;20006;-82
2023/09/21 09:38:03;;;;;;;;;;;;;;;;;;5095666;28;20026;-82
2023/09/21 09:40:30;;;;;;;;;;;;;;;;;;5093811;28;19927;-82
2023/09/21 09:42:55;;;;;;;;;;;;;;;;;;5094263;28;19914;-82
2023/09/21 09:45:20;;;;;;;;;;;;;;;;;;5093910;28;19912;-82
2023/09/21 09:47:46;;;;;;;;;;;;;;;;;;5094059;28;20028;-83
2023/09/21 09:50:13;;;;;;;;;;;;;;;;;;5093452;28;19958;-83
2023/09/21 09:52:40;;;;;;;;;;;;;;;;;;5076178;28;19908;-83
2023/09/21 09:55:06;;;;;;;;;;;;;;;;;;5081207;28;20275;-82
2023/09/21 09:57:31;;;;;;;;;;;;;;;;;;5093218;28;19908;-82
2023/09/21 09:59:57;;;;;;;;;;;;;;;;;;5093762;28;19923;-83
2023/09/21 10:02:22;;;;;;;;;;;;;;;;;;5093570;28;20449;-81
2023/09/21 10:04:47;;;;;;;;;;;;;;;;;;5093716;28;19912;-82
2023/09/21 10:07:16;;;;;;;;;;;;;;;;;;5092365;28;19912;-82
2023/09/21 10:09:42;;;;;;;;;;;;;;;;;;5078825;28;19912;-82
2023/09/21 10:12:08;;;;;;;;;;;;;;;;;;5109111;28;20232;-82
2023/09/21 10:14:36;;;;;;;;;;;;;;;;;;5092125;28;19912;-82
2023/09/21 10:17:02;;;;;;;;;;;;;;;;;;5093597;28;19915;-79
2023/09/21 10:19:38;;;;;;;;;;;;;;;;;;5093335;28;19911;-82
2023/09/21 10:22:03;;;;;;;;;;;;;;;;;;5093302;28;20010;-84
2023/09/21 10:24:29;;;;;;;;;;;;;;;;;;5094289;28;20089;-82
2023/09/21 10:26:55;;;;;;;;;;;;;;;;;;5092859;28;19920;-84
2023/09/21 10:29:20;;;;;;;;;;;;;;;;;;5093272;28;20010;-82
2023/09/21 10:31:46;;;;;;;;;;;;;;;;;;5092500;28;19912;-81
2023/09/21 10:34:12;;;;;;;;;;;;;;;;;;5092865;28;19908;-82
2023/09/21 10:36:38;;;;;;;;;;;;;;;;;;5105860;28;20510;-82
2023/09/21 10:39:04;;;;;;;;;;;;;;;;;;5091169;28;19929;-82
2023/09/21 10:41:30;;;;;;;;;;;;;;;;;;5091347;28;19919;-82
2023/09/21 10:43:56;;;;;;;;;;;;;;;;;;5092849;28;20023;-82
2023/09/21 10:46:22;;;;;;;;;;;;;;;;;;5093067;28;19919;-83
2023/09/21 10:48:48;;;;;;;;;;;;;;;;;;5091793;28;20314;-82
2023/09/21 10:51:14;;;;;;;;;;;;;;;;;;5093075;28;20275;-82
2023/09/21 10:53:39;;;;;;;;;;;;;;;;;;5102998;28;20431;-82
2023/09/21 10:56:05;;;;;;;;;;;;;;;;;;5092653;28;19920;-82
2023/09/21 10:58:30;;;;;;;;;;;;;;;;;;5092060;28;19908;-82
2023/09/21 11:00:56;;;;;;;;;;;;;;;;;;5092358;28;19916;-82
2023/09/21 11:03:21;;;;;;;;;;;;;;;;;;5093648;28;19915;-82
2023/09/21 11:05:46;;;;;;;;;;;;;;;;;;5091516;28;20397;-82
2023/09/21 11:08:12;;;;;;;;;;;;;;;;;;5092726;28;19965;-82
2023/09/21 11:10:37;;;;;;;;;;;;;;;;;;5092297;28;19973;-88
2023/09/21 11:13:03;;;;;;;;;;;;;;;;;;5096598;28;19908;-89
2023/09/21 11:15:32;;;;;;;;;;;;;;;;;;5103178;28;19911;-88
2023/09/21 11:17:57;;;;;;;;;;;;;;;;;;5090855;28;19954;-88
2023/09/21 11:20:24;;;;;;;;;;;;;;;;;;5092664;28;19958;-89
2023/09/21 11:22:49;;;;;;;;;;;;;;;;;;5091318;28;19965;-88
2023/09/21 11:25:15;;;;;;;;;;;;;;;;;;5091534;28;19912;-88
2023/09/21 11:27:40;;;;;;;;;;;;;;;;;;5098425;27;19920;-88
2023/09/21 11:30:09;;;;;;;;;;;;;;;;;;5092179;28;19964;-88
2023/09/21 11:32:35;;;;;;;;;;;;;;;;;;5092204;28;19908;-88
2023/09/21 11:35:02;;;;;;;;;;;;;;;;;;5090542;28;19957;-88
2023/09/21 11:37:28;;;;;;;;;;;;;;;;;;5091334;28;20010;-88
2023/09/21 11:39:55;;;;;;;;;;;;;;;;;;5074194;28;20002;-87
2023/09/21 11:42:20;;;;;;;;;;;;;;;;;;5103668;28;19908;-88
2023/09/21 11:44:45;;;;;;;;;;;;;;;;;;5092333;28;20453;-88
2023/09/21 11:47:11;;;;;;;;;;;;;;;;;;5092810;28;19908;-87
2023/09/21 11:49:36;;;;;;;;;;;;;;;;;;5090148;28;19962;-88
2023/09/21 11:52:03;;;;;;;;;;;;;;;;;;5092807;28;19998;-88
2023/09/21 11:54:29;;;;;;;;;;;;;;;;;;5092080;28;19947;-87
2023/09/21 11:56:55;;;;;;;;;;;;;;;;;;5092995;28;19911;-88
2023/09/21 11:59:20;;;;;;;;;;;;;;;;;;5092633;28;19961;-87
2023/09/21 12:01:48;;;;;;;;;;;;;;;;;;5091284;28;20367;-87
2023/09/21 12:04:16;;;;;;;;;;;;;;;;;;5091082;28;19919;-88
2023/09/21 12:06:42;;;;;;;;;;;;;;;;;;5092213;28;19919;-86
2023/09/21 12:09:07;;;;;;;;;;;;;;;;;;5090493;28;19916;-88
2023/09/21 12:11:34;;;;;;;;;;;;;;;;;;5092538;28;19915;-87
2023/09/21 12:14:04;;;;;;;;;;;;;;;;;;5095791;28;20400;-88
2023/09/21 12:16:30;;;;;;;;;;;;;;;;;;5092787;28;19920;-88
2023/09/21 12:18:58;;;;;;;;;;;;;;;;;;5090834;28;20298;-86
2023/09/21 12:21:23;;;;;;;;;;;;;;;;;;5107898;28;19961;-87
2023/09/21 12:23:49;;;;;;;;;;;;;;;;;;5092244;28;19920;-87
2023/09/21 12:26:14;;;;;;;;;;;;;;;;;;5092496;28;19908;-88
2023/09/21 12:28:42;;;;;;;;;;;;;;;;;;5088732;28;19920;-88
2023/09/21 12:31:07;;;;;;;;;;;;;;;;;;5093032;28;19912;-87
2023/09/21 12:33:33;;;;;;;;;;;;;;;;;;5092691;28;19937;-87
2023/09/21 12:36:00;;;;;;;;;;;;;;;;;;5092618;28;19914;-87
2023/09/21 12:38:25;;;;;;;;;;;;;;;;;;5070807;28;20297;-87
2023/09/21 12:40:52;;;;;;;;;;;;;;;;;;5091056;28;19912;-88
2023/09/21 12:43:17;;;;;;;;;;;;;;;;;;5107493;28;20011;-88
2023/09/21 12:45:43;;;;;;;;;;;;;;;;;;5092295;28;20345;-87
2023/09/21 12:48:08;;;;;;;;;;;;;;;;;;5090320;28;19918;-87
2023/09/21 12:50:34;;;;;;;;;;;;;;;;;;5091437;28;19919;-87
2023/09/21 12:52:59;;;;;;;;;;;;;;;;;;5092059;28;19922;-87
2023/09/21 12:55:25;;;;;;;;;;;;;;;;;;5074405;28;19908;-89
2023/09/21 12:57:50;;;;;;;;;;;;;;;;;;5091783;28;19916;-87
2023/09/21 13:00:18;;;;;;;;;;;;;;;;;;5092358;28;20007;-87
2023/09/21 13:02:44;;;;;;;;;;;;;;;;;;5098030;28;19912;-87
2023/09/21 13:05:12;;;;;;;;;;;;;;;;;;5083379;28;19927;-88
2023/09/21 13:07:37;;;;;;;;;;;;;;;;;;5090355;28;20379;-88
2023/09/21 13:10:03;;;;;;;;;;;;;;;;;;5091834;28;19908;-87
2023/09/21 13:12:28;;;;;;;;;;;;;;;;;;5091676;28;19912;-88
2023/09/21 13:14:53;;;;;;;;;;;;;;;;;;5091739;28;19915;-88
2023/09/21 13:17:23;;;;;;;;;;;;;;;;;;5091502;28;19939;-87
2023/09/21 13:19:52;;;;;;;;;;;;;;;;;;5091636;28;19908;-87
2023/09/21 13:22:21;;;;;;;;;;;;;;;;;;5091142;28;19961;-88
2023/09/21 13:24:46;;;;;;;;;;;;;;;;;;5091594;28;19908;-88
2023/09/21 13:27:13;;;;;;;;;;;;;;;;;;5092254;28;19919;-88
2023/09/21 13:29:38;;;;;;;;;;;;;;;;;;5086166;28;19908;-88
2023/09/21 13:32:06;;;;;;;;;;;;;;;;;;5088761;28;19912;-88
2023/09/21 13:34:32;;;;;;;;;;;;;;;;;;5089754;28;19908;-88
2023/09/21 13:36:57;;;;;;;;;;;;;;;;;;5109343;28;20378;-88
2023/09/21 13:39:23;;;;;;;;;;;;;;;;;;5094616;28;19908;-87
2023/09/21 13:41:49;;;;;;;;;;;;;;;;;;5094178;28;19920;-87
2023/09/21 13:44:14;;;;;;;;;;;;;;;;;;5092993;28;19999;-87
2023/09/21 13:46:40;;;;;;;;;;;;;;;;;;5093329;28;20013;-87
2023/09/21 13:49:06;;;;;;;;;;;;;;;;;;5094275;28;20287;-87
2023/09/21 13:51:33;;;;;;;;;;;;;;;;;;5075339;28;19953;-87
2023/09/21 13:53:58;;;;;;;;;;;;;;;;;;5094288;28;20389;-87
2023/09/21 13:56:24;;;;;;;;;;;;;;;;;;5094160;28;20057;-88
2023/09/21 13:58:49;;;;;;;;;;;;;;;;;;5076790;28;19965;-87
2023/09/21 14:01:15;;;;;;;;;;;;;;;;;;5096474;28;19916;-87
2023/09/21 14:03:41;;;;;;;;;;;;;;;;;;5102739;28;19908;-88
2023/09/21 14:06:07;;;;;;;;;;;;;;;;;;5092709;28;20001;-82
2023/09/21 14:08:32;;;;;;;;;;;;;;;;;;5092827;28;19951;-82
2023/09/21 14:10:57;;;;;;;;;;;;;;;;;;5093733;28;19912;-83
2023/09/21 14:13:23;;;;;;;;;;;;;;;;;;5093368;28;19908;-82
2023/09/21 14:15:48;;;;;;;;;;;;;;;;;;5093843;28;19912;-82
2023/09/21 14:18:13;;;;;;;;;;;;;;;;;;5093491;28;19999;-82
2023/09/21 14:20:39;;;;;;;;;;;;;;;;;;5093424;28;20429;-82
2023/09/21 14:23:04;;;;;;;;;;;;;;;;;;5093532;28;19942;-82
2023/09/21 14:25:29;;;;;;;;;;;;;;;;;;5093166;28;19965;-83
2023/09/21 14:27:55;;;;;;;;;;;;;;;;;;5093474;28;20333;-82
2023/09/21 14:30:20;;;;;;;;;;;;;;;;;;5094080;28;19912;-82
2023/09/21 14:32:46;;;;;;;;;;;;;;;;;;5109572;28;19919;-82
2023/09/21 14:35:12;;;;;;;;;;;;;;;;;;5093782;28;19947;-81
2023/09/21 14:37:38;;;;;;;;;;;;;;;;;;5092135;28;19951;-82
2023/09/21 14:40:05;;;;;;;;;;;;;;;;;;5092281;28;19923;-81
2023/09/21 14:42:31;;;;;;;;;;;;;;;;;;5093164;28;20294;-81
2023/09/21 14:44:56;;;;;;;;;;;;;;;;;;5097521;28;19919;-81
2023/09/21 14:47:22;;;;;;;;;;;;;;;;;;5093457;28;19943;-82
2023/09/21 14:49:48;;;;;;;;;;;;;;;;;;5093876;28;19946;-84
2023/09/21 14:52:13;;;;;;;;;;;;;;;;;;5093357;28;19908;-78
2023/09/21 14:54:38;;;;;;;;;;;;;;;;;;5092490;28;20361;-76
2023/09/21 14:57:04;;;;;;;;;;;;;;;;;;5092494;28;19908;-78
2023/09/21 14:59:30;;;;;;;;;;;;;;;;;;5092065;28;19951;-79
2023/09/21 15:01:56;;;;;;;;;;;;;;;;;;5089490;28;19912;-78
2023/09/21 15:04:22;;;;;;;;;;;;;;;;;;5092410;28;19922;-78
2023/09/21 15:06:47;;;;;;;;;;;;;;;;;;5092135;28;19912;-79
2023/09/21 15:09:14;;;;;;;;;;;;;;;;;;5091908;28;19912;-79
2023/09/21 15:11:39;;;;;;;;;;;;;;;;;;5091072;28;19919;-79
2023/09/21 15:14:05;;;;;;;;;;;;;;;;;;5091171;28;20321;-79
2023/09/21 15:16:30;;;;;;;;;;;;;;;;;;5099634;27;20714;-79
2023/09/21 15:18:55;;;;;;;;;;;;;;;;;;5091907;28;19919;-79
2023/09/21 15:21:20;;;;;;;;;;;;;;;;;;5091959;28;20036;-78
2023/09/21 15:23:46;;;;;;;;;;;;;;;;;;5092102;28;19912;-78
2023/09/21 15:26:11;;;;;;;;;;;;;;;;;;5107361;28;19994;-78
2023/09/21 15:28:37;;;;;;;;;;;;;;;;;;5086792;28;20429;-77
2023/09/21 15:31:02;;;;;;;;;;;;;;;;;;5091971;28;19946;-77
2023/09/21 15:33:28;;;;;;;;;;;;;;;;;;5092003;28;19912;-78
2023/09/21 15:35:53;;;;;;;;;;;;;;;;;;5107617;28;20981;-78
2023/09/21 15:38:18;;;;;;;;;;;;;;;;;;5090040;28;19916;-78
2023/09/21 15:40:45;;;;;;;;;;;;;;;;;;5101917;28;19912;-77
2023/09/21 15:43:11;;;;;;;;;;;;;;;;;;5090455;28;20395;-78
2023/09/21 15:45:36;;;;;;;;;;;;;;;;;;5091699;28;19973;-78
2023/09/21 15:48:01;;;;;;;;;;;;;;;;;;5090228;28;20378;-78
2023/09/21 15:50:27;;;;;;;;;;;;;;;;;;5090560;28;19915;-78
2023/09/21 15:52:52;;;;;;;;;;;;;;;;;;5088013;28;19912;-78
2023/09/21 15:55:18;;;;;;;;;;;;;;;;;;5087763;28;19915;-78
2023/09/21 15:57:43;;;;;;;;;;;;;;;;;;5088452;28;19957;-78
2023/09/21 16:00:11;;;;;;;;;;;;;;;;;;5094403;28;19923;-78
2023/09/21 16:02:39;;;;;;;;;;;;;;;;;;5091252;28;19916;-77
2023/09/21 16:05:04;;;;;;;;;;;;;;;;;;5086616;28;20411;-77
2023/09/21 16:07:30;;;;;;;;;;;;;;;;;;5086681;28;19957;-77
2023/09/21 16:09:55;;;;;;;;;;;;;;;;;;5084779;28;19915;-78
2023/09/21 16:12:21;;;;;;;;;;;;;;;;;;5087632;28;20429;-77
2023/09/21 16:14:46;;;;;;;;;;;;;;;;;;5091674;28;19915;-78
2023/09/21 16:17:11;;;;;;;;;;;;;;;;;;5090397;28;20402;-77
2023/09/21 16:19:37;;;;;;;;;;;;;;;;;;5098658;28;19915;-78
2023/09/21 16:22:02;;;;;;;;;;;;;;;;;;5093616;28;19916;-78
2023/09/21 16:24:27;;;;;;;;;;;;;;;;;;5095166;28;19907;-78
2023/09/21 16:26:56;;;;;;;;;;;;;;;;;;5091856;28;20011;-78
2023/09/21 16:29:22;;;;;;;;;;;;;;;;;;5090773;28;19914;-77
2023/09/21 16:31:48;;;;;;;;;;;;;;;;;;5090994;28;20038;-77
2023/09/21 16:34:13;;;;;;;;;;;;;;;;;;5091627;28;20422;-77
2023/09/21 16:36:38;;;;;;;;;;;;;;;;;;5087033;28;19916;-78